Time;durP1;ratioP1;P1;durP2;ratioP2;P2;SDS_P1;SDS_P2;PMS_P1;PMS_P2;Temp;Humidity;BMP_temperature;BMP_pressure;BME280_temperature;BME280_humidity;BME280_pressure;Samples;Min_cycle;Max_cycle;Signal;HPM_P1;HPM_P2
2022/07/11 00:02:11;;;;;;;;;;;;;;;;;;4999022;28;20621;-81
2022/07/11 00:04:36;;;;;;;;;;;;;;;;;;5001026;28;19946;-81
2022/07/11 00:07:01;;;;;;;;;;;;;;;;;;5000730;28;20359;-82
2022/07/11 00:09:27;;;;;;;;;;;;;;;;;;4986902;28;20435;-81
2022/07/11 00:11:52;;;;;;;;;;;;;;;;;;5002956;28;19949;-81
2022/07/11 00:14:17;;;;;;;;;;;;;;;;;;5003997;28;19918;-82
2022/07/11 00:16:42;;;;;;;;;;;;;;;;;;5000801;28;19976;-81
2022/07/11 00:19:07;;;;;;;;;;;;;;;;;;5005961;28;20102;-82
2022/07/11 00:21:34;;;;;;;;;;;;;;;;;;5005711;28;19924;-82
2022/07/11 00:23:59;;;;;;;;;;;;;;;;;;5009833;28;20425;-82
2022/07/11 00:26:36;;;;;;;;;;;;;;;;;;5009748;28;20279;-82
2022/07/11 00:31:44;;;;;;;;;;;;;;;;;;5020360;23;20018;-82
2022/07/11 00:34:09;;;;;;;;;;;;;;;;;;4979858;28;19934;-82
2022/07/11 00:36:34;;;;;;;;;;;;;;;;;;4965605;28;20201;-82
2022/07/11 00:39:00;;;;;;;;;;;;;;;;;;4967652;28;19917;-82
2022/07/11 00:41:25;;;;;;;;;;;;;;;;;;4967896;28;19918;-82
2022/07/11 00:43:50;;;;;;;;;;;;;;;;;;5003317;22;19932;-84
2022/07/11 00:46:15;;;;;;;;;;;;;;;;;;5018310;28;19964;-83
2022/07/11 00:48:41;;;;;;;;;;;;;;;;;;5021120;28;19917;-83
2022/07/11 00:51:06;;;;;;;;;;;;;;;;;;5018653;28;19913;-83
2022/07/11 00:53:31;;;;;;;;;;;;;;;;;;5028805;28;21994;-84
2022/07/11 00:55:56;;;;;;;;;;;;;;;;;;5037956;28;19963;-83
2022/07/11 00:58:21;;;;;;;;;;;;;;;;;;5037321;28;19943;-82
2022/07/11 01:00:46;;;;;;;;;;;;;;;;;;5037939;28;19952;-83
2022/07/11 01:03:11;;;;;;;;;;;;;;;;;;5038539;28;19921;-83
2022/07/11 01:05:37;;;;;;;;;;;;;;;;;;5040499;28;20385;-83
2022/07/11 01:08:02;;;;;;;;;;;;;;;;;;5039894;28;19912;-83
2022/07/11 01:10:27;;;;;;;;;;;;;;;;;;5040645;28;19913;-83
2022/07/11 01:12:52;;;;;;;;;;;;;;;;;;5037721;28;20348;-83
2022/07/11 01:15:17;;;;;;;;;;;;;;;;;;5036314;28;19971;-83
2022/07/11 01:17:43;;;;;;;;;;;;;;;;;;5040428;28;20350;-82
2022/07/11 01:20:08;;;;;;;;;;;;;;;;;;5035267;28;19913;-83
2022/07/11 01:22:33;;;;;;;;;;;;;;;;;;5046274;28;20258;-82
2022/07/11 01:24:58;;;;;;;;;;;;;;;;;;5038501;28;20035;-82
2022/07/11 01:27:23;;;;;;;;;;;;;;;;;;5039139;28;20164;-83
2022/07/11 01:29:48;;;;;;;;;;;;;;;;;;5041097;28;19931;-82
2022/07/11 01:32:14;;;;;;;;;;;;;;;;;;5036952;28;19910;-83
2022/07/11 01:34:39;;;;;;;;;;;;;;;;;;5040029;28;19928;-83
2022/07/11 01:37:04;;;;;;;;;;;;;;;;;;5035468;28;19913;-83
2022/07/11 01:39:29;;;;;;;;;;;;;;;;;;5037336;28;19913;-82
2022/07/11 01:41:55;;;;;;;;;;;;;;;;;;5036090;28;19962;-86
2022/07/11 01:44:20;;;;;;;;;;;;;;;;;;5040746;28;20004;-82
2022/07/11 01:46:45;;;;;;;;;;;;;;;;;;5035399;28;19935;-84
2022/07/11 01:49:10;;;;;;;;;;;;;;;;;;5036207;28;19913;-83
2022/07/11 01:51:36;;;;;;;;;;;;;;;;;;5042389;28;19939;-82
2022/07/11 01:54:01;;;;;;;;;;;;;;;;;;5037665;28;20310;-83
2022/07/11 01:56:27;;;;;;;;;;;;;;;;;;5035875;28;19921;-83
2022/07/11 01:58:52;;;;;;;;;;;;;;;;;;5040383;28;19918;-83
2022/07/11 02:01:17;;;;;;;;;;;;;;;;;;5037178;28;19943;-83
2022/07/11 02:03:42;;;;;;;;;;;;;;;;;;5038528;28;20023;-83
2022/07/11 02:06:08;;;;;;;;;;;;;;;;;;5033676;28;19913;-84
2022/07/11 02:08:33;;;;;;;;;;;;;;;;;;5038176;28;19971;-82
2022/07/11 02:10:58;;;;;;;;;;;;;;;;;;5042948;28;19921;-83
2022/07/11 02:13:23;;;;;;;;;;;;;;;;;;5033685;28;20147;-83
2022/07/11 02:15:53;;;;;;;;;;;;;;;;;;5042227;28;19913;-84
2022/07/11 02:18:18;;;;;;;;;;;;;;;;;;5017622;28;20329;-83
2022/07/11 02:20:45;;;;;;;;;;;;;;;;;;5039433;28;20044;-82
2022/07/11 02:23:10;;;;;;;;;;;;;;;;;;5036428;28;20366;-82
2022/07/11 02:25:38;;;;;;;;;;;;;;;;;;5040225;28;19931;-82
2022/07/11 02:28:03;;;;;;;;;;;;;;;;;;5042563;28;19974;-82
2022/07/11 02:30:28;;;;;;;;;;;;;;;;;;5039945;28;20168;-82
2022/07/11 02:32:54;;;;;;;;;;;;;;;;;;5040250;28;20374;-83
2022/07/11 02:35:19;;;;;;;;;;;;;;;;;;5038674;28;20428;-83
2022/07/11 02:37:44;;;;;;;;;;;;;;;;;;5021634;28;19936;-82
2022/07/11 02:40:09;;;;;;;;;;;;;;;;;;5033734;28;19913;-82
2022/07/11 02:42:34;;;;;;;;;;;;;;;;;;5041378;28;20070;-83
2022/07/11 02:45:00;;;;;;;;;;;;;;;;;;5037403;28;19999;-82
2022/07/11 02:47:25;;;;;;;;;;;;;;;;;;5039412;28;19921;-82
2022/07/11 02:49:50;;;;;;;;;;;;;;;;;;5041425;28;19921;-82
2022/07/11 02:52:15;;;;;;;;;;;;;;;;;;5023278;28;19920;-83
2022/07/11 02:54:40;;;;;;;;;;;;;;;;;;5040985;28;20509;-82
2022/07/11 02:57:05;;;;;;;;;;;;;;;;;;5037601;28;20370;-83
2022/07/11 02:59:31;;;;;;;;;;;;;;;;;;5035590;28;19924;-82
2022/07/11 03:01:56;;;;;;;;;;;;;;;;;;5038687;28;20374;-84
2022/07/11 03:04:21;;;;;;;;;;;;;;;;;;5037216;28;19917;-83
2022/07/11 03:06:46;;;;;;;;;;;;;;;;;;5036167;28;19913;-83
2022/07/11 03:09:11;;;;;;;;;;;;;;;;;;5034397;28;19968;-82
2022/07/11 03:11:37;;;;;;;;;;;;;;;;;;5040061;28;20000;-83
2022/07/11 03:14:02;;;;;;;;;;;;;;;;;;5040539;28;20004;-82
2022/07/11 03:16:27;;;;;;;;;;;;;;;;;;5036666;28;20394;-83
2022/07/11 03:18:52;;;;;;;;;;;;;;;;;;5039708;28;19916;-83
2022/07/11 03:21:17;;;;;;;;;;;;;;;;;;5035993;28;20402;-82
2022/07/11 03:23:42;;;;;;;;;;;;;;;;;;5038829;28;19920;-83
2022/07/11 03:26:08;;;;;;;;;;;;;;;;;;5041606;28;20438;-83
2022/07/11 03:28:33;;;;;;;;;;;;;;;;;;5023316;28;19931;-82
2022/07/11 03:30:58;;;;;;;;;;;;;;;;;;5039739;28;19913;-82
2022/07/11 03:33:23;;;;;;;;;;;;;;;;;;5038614;28;19972;-83
2022/07/11 03:35:49;;;;;;;;;;;;;;;;;;5038007;28;20024;-83
2022/07/11 03:38:15;;;;;;;;;;;;;;;;;;5040648;28;19917;-83
2022/07/11 03:40:40;;;;;;;;;;;;;;;;;;5036399;28;19920;-82
2022/07/11 03:43:06;;;;;;;;;;;;;;;;;;5038528;28;19913;-84
2022/07/11 03:45:31;;;;;;;;;;;;;;;;;;5023150;28;20344;-82
2022/07/11 03:47:56;;;;;;;;;;;;;;;;;;5040363;28;19920;-83
2022/07/11 03:50:21;;;;;;;;;;;;;;;;;;5033854;28;19917;-83
2022/07/11 03:52:46;;;;;;;;;;;;;;;;;;5038461;28;19925;-83
2022/07/11 03:55:11;;;;;;;;;;;;;;;;;;5039613;28;19913;-83
2022/07/11 03:57:37;;;;;;;;;;;;;;;;;;5034799;28;19920;-83
2022/07/11 04:00:04;;;;;;;;;;;;;;;;;;5040842;28;19913;-84
2022/07/11 04:02:29;;;;;;;;;;;;;;;;;;5035087;28;20316;-83
2022/07/11 04:04:54;;;;;;;;;;;;;;;;;;5042226;28;19913;-84
2022/07/11 04:07:20;;;;;;;;;;;;;;;;;;5036587;28;19909;-84
2022/07/11 04:09:45;;;;;;;;;;;;;;;;;;5038380;28;20317;-83
2022/07/11 04:12:10;;;;;;;;;;;;;;;;;;5036702;28;20053;-84
2022/07/11 04:14:36;;;;;;;;;;;;;;;;;;5040273;28;20522;-83
2022/07/11 04:17:01;;;;;;;;;;;;;;;;;;5037114;28;20465;-83
2022/07/11 04:19:26;;;;;;;;;;;;;;;;;;5038143;28;20363;-83
2022/07/11 04:21:51;;;;;;;;;;;;;;;;;;5042068;28;19921;-82
2022/07/11 04:24:16;;;;;;;;;;;;;;;;;;5025066;28;19919;-83
2022/07/11 04:26:42;;;;;;;;;;;;;;;;;;5036444;28;19916;-83
2022/07/11 04:29:07;;;;;;;;;;;;;;;;;;5038638;28;19949;-83
2022/07/11 04:31:32;;;;;;;;;;;;;;;;;;5038003;28;20548;-83
2022/07/11 04:33:57;;;;;;;;;;;;;;;;;;5039037;28;19923;-82
2022/07/11 04:36:23;;;;;;;;;;;;;;;;;;5043049;28;19912;-83
2022/07/11 04:38:49;;;;;;;;;;;;;;;;;;5044232;28;19919;-83
2022/07/11 04:41:14;;;;;;;;;;;;;;;;;;5033534;28;19959;-82
2022/07/11 04:43:39;;;;;;;;;;;;;;;;;;5039340;28;19949;-82
2022/07/11 04:46:05;;;;;;;;;;;;;;;;;;5040313;28;20053;-83
2022/07/11 04:48:30;;;;;;;;;;;;;;;;;;5039439;28;19924;-83
2022/07/11 04:50:55;;;;;;;;;;;;;;;;;;5039788;28;20336;-83
2022/07/11 04:53:20;;;;;;;;;;;;;;;;;;5040769;28;19913;-83
2022/07/11 04:55:45;;;;;;;;;;;;;;;;;;5040623;28;19972;-83
2022/07/11 04:58:11;;;;;;;;;;;;;;;;;;5037626;28;19942;-82
2022/07/11 05:00:36;;;;;;;;;;;;;;;;;;5041716;28;20390;-83
2022/07/11 05:03:01;;;;;;;;;;;;;;;;;;5032458;28;20048;-84
2022/07/11 05:05:27;;;;;;;;;;;;;;;;;;5035668;28;20359;-83
2022/07/11 05:07:52;;;;;;;;;;;;;;;;;;5033494;28;20016;-83
2022/07/11 05:10:17;;;;;;;;;;;;;;;;;;5034990;28;20161;-83
2022/07/11 05:12:42;;;;;;;;;;;;;;;;;;5032118;28;19932;-85
2022/07/11 05:15:08;;;;;;;;;;;;;;;;;;5030440;28;19914;-83
2022/07/11 05:17:33;;;;;;;;;;;;;;;;;;5034432;28;20294;-82
2022/07/11 05:19:58;;;;;;;;;;;;;;;;;;5027840;28;19932;-83
2022/07/11 05:22:23;;;;;;;;;;;;;;;;;;5034021;28;19913;-82
2022/07/11 05:24:48;;;;;;;;;;;;;;;;;;5037232;28;19973;-82
2022/07/11 05:27:14;;;;;;;;;;;;;;;;;;5038212;28;19917;-83
2022/07/11 05:29:39;;;;;;;;;;;;;;;;;;5040663;28;19952;-83
2022/07/11 05:32:04;;;;;;;;;;;;;;;;;;5041292;28;20271;-83
2022/07/11 05:34:29;;;;;;;;;;;;;;;;;;5037713;28;20452;-82
2022/07/11 05:36:54;;;;;;;;;;;;;;;;;;5035029;28;19937;-83
2022/07/11 05:39:19;;;;;;;;;;;;;;;;;;5035570;28;19963;-84
2022/07/11 05:41:45;;;;;;;;;;;;;;;;;;5039174;28;19939;-84
2022/07/11 05:44:10;;;;;;;;;;;;;;;;;;5040483;28;19927;-83
2022/07/11 05:46:39;;;;;;;;;;;;;;;;;;5039558;28;19924;-83
2022/07/11 05:49:04;;;;;;;;;;;;;;;;;;5033816;28;19962;-83
2022/07/11 05:51:29;;;;;;;;;;;;;;;;;;5035970;28;20458;-83
2022/07/11 05:53:55;;;;;;;;;;;;;;;;;;5035303;28;19917;-84
2022/07/11 05:56:20;;;;;;;;;;;;;;;;;;5040019;28;20288;-83
2022/07/11 05:58:45;;;;;;;;;;;;;;;;;;5037899;28;20290;-84
2022/07/11 06:01:10;;;;;;;;;;;;;;;;;;5034814;28;20016;-83
2022/07/11 06:03:36;;;;;;;;;;;;;;;;;;5035913;28;19921;-83
2022/07/11 06:06:04;;;;;;;;;;;;;;;;;;5032979;28;19939;-83
2022/07/11 06:08:41;;;;;;;;;;;;;;;;;;5039483;28;20145;-84
2022/07/11 06:11:06;;;;;;;;;;;;;;;;;;5032481;28;19913;-83
2022/07/11 06:13:31;;;;;;;;;;;;;;;;;;5036907;28;20219;-83
2022/07/11 06:15:57;;;;;;;;;;;;;;;;;;5038608;28;19917;-83
2022/07/11 06:18:23;;;;;;;;;;;;;;;;;;5033677;28;19963;-83
2022/07/11 06:20:49;;;;;;;;;;;;;;;;;;5033753;28;19921;-85
2022/07/11 06:23:14;;;;;;;;;;;;;;;;;;5018923;28;19917;-84
2022/07/11 06:25:39;;;;;;;;;;;;;;;;;;5032722;28;19936;-83
2022/07/11 06:28:04;;;;;;;;;;;;;;;;;;5034995;28;20531;-84
2022/07/11 06:30:30;;;;;;;;;;;;;;;;;;5029847;28;19971;-86
2022/07/11 06:32:56;;;;;;;;;;;;;;;;;;5019203;28;19917;-84
2022/07/11 06:35:21;;;;;;;;;;;;;;;;;;5038549;28;19924;-86
2022/07/11 06:37:46;;;;;;;;;;;;;;;;;;5039623;28;19947;-84
2022/07/11 06:40:12;;;;;;;;;;;;;;;;;;5040579;28;20062;-84
2022/07/11 06:42:37;;;;;;;;;;;;;;;;;;5038182;28;19916;-84
2022/07/11 06:45:02;;;;;;;;;;;;;;;;;;5036556;22;20012;-84
2022/07/11 06:47:27;;;;;;;;;;;;;;;;;;5001649;28;20088;-84
2022/07/11 06:49:52;;;;;;;;;;;;;;;;;;5000018;28;20346;-84
2022/07/11 06:52:18;;;;;;;;;;;;;;;;;;5002494;28;20044;-84
2022/07/11 06:54:43;;;;;;;;;;;;;;;;;;4990577;28;20383;-84
2022/07/11 06:57:08;;;;;;;;;;;;;;;;;;5000824;28;20170;-85
2022/07/11 06:59:33;;;;;;;;;;;;;;;;;;5006727;28;21585;-84
2022/07/11 07:01:58;;;;;;;;;;;;;;;;;;4991837;28;20004;-84
2022/07/11 07:04:23;;;;;;;;;;;;;;;;;;5001951;28;19920;-84
2022/07/11 07:06:49;;;;;;;;;;;;;;;;;;5003902;28;20015;-84
2022/07/11 07:09:14;;;;;;;;;;;;;;;;;;5006018;28;19917;-86
2022/07/11 07:11:39;;;;;;;;;;;;;;;;;;4986714;28;19928;-84
2022/07/11 07:14:05;;;;;;;;;;;;;;;;;;5004989;28;19914;-85
2022/07/11 07:16:30;;;;;;;;;;;;;;;;;;5004322;28;19921;-84
2022/07/11 07:18:55;;;;;;;;;;;;;;;;;;5001966;28;19917;-85
2022/07/11 07:21:20;;;;;;;;;;;;;;;;;;5004604;28;19914;-85
2022/07/11 07:23:46;;;;;;;;;;;;;;;;;;5005641;28;19921;-85
2022/07/11 07:26:11;;;;;;;;;;;;;;;;;;5004456;28;20499;-86
2022/07/11 07:28:38;;;;;;;;;;;;;;;;;;5000933;28;20531;-85
2022/07/11 07:31:03;;;;;;;;;;;;;;;;;;5003017;28;20390;-84
2022/07/11 07:33:28;;;;;;;;;;;;;;;;;;5006418;28;19928;-85
2022/07/11 07:35:54;;;;;;;;;;;;;;;;;;5001374;28;19991;-84
2022/07/11 07:38:19;;;;;;;;;;;;;;;;;;5001040;28;19928;-84
2022/07/11 07:40:44;;;;;;;;;;;;;;;;;;5003796;28;20430;-85
2022/07/11 07:43:09;;;;;;;;;;;;;;;;;;5001026;28;19917;-85
2022/07/11 07:45:35;;;;;;;;;;;;;;;;;;5004461;28;19933;-85
2022/07/11 07:48:00;;;;;;;;;;;;;;;;;;5001389;28;21326;-86
2022/07/11 07:50:25;;;;;;;;;;;;;;;;;;5004982;28;19914;-87
2022/07/11 07:52:50;;;;;;;;;;;;;;;;;;5001304;28;20386;-86
2022/07/11 07:55:15;;;;;;;;;;;;;;;;;;4999708;28;20000;-86
2022/07/11 07:57:41;;;;;;;;;;;;;;;;;;4999723;28;20370;-87
2022/07/11 08:02:50;;;;;;;;;;;;;;;;;;4999516;28;19924;-85
2022/07/11 08:05:15;;;;;;;;;;;;;;;;;;4997982;28;19914;-86
2022/07/11 08:07:41;;;;;;;;;;;;;;;;;;5003053;28;19984;-85
2022/07/11 08:10:06;;;;;;;;;;;;;;;;;;5006446;28;19919;-86
2022/07/11 08:12:31;;;;;;;;;;;;;;;;;;5008379;28;19909;-86
2022/07/11 08:14:56;;;;;;;;;;;;;;;;;;5003658;28;20001;-86
2022/07/11 08:17:21;;;;;;;;;;;;;;;;;;5003325;28;19941;-85
2022/07/11 08:19:47;;;;;;;;;;;;;;;;;;5006030;28;20345;-86
2022/07/11 08:22:12;;;;;;;;;;;;;;;;;;5005859;28;20307;-87
2022/07/11 08:24:37;;;;;;;;;;;;;;;;;;5009542;28;20020;-86
2022/07/11 08:27:03;;;;;;;;;;;;;;;;;;5004036;28;19914;-86
2022/07/11 08:29:28;;;;;;;;;;;;;;;;;;5005173;28;19914;-86
2022/07/11 08:31:53;;;;;;;;;;;;;;;;;;5001446;28;20290;-86
2022/07/11 08:34:18;;;;;;;;;;;;;;;;;;5002633;28;19917;-87
2022/07/11 08:36:43;;;;;;;;;;;;;;;;;;5005248;28;20300;-87
2022/07/11 08:39:08;;;;;;;;;;;;;;;;;;5005389;28;19917;-86
2022/07/11 08:41:34;;;;;;;;;;;;;;;;;;5005254;28;19921;-87
2022/07/11 08:43:59;;;;;;;;;;;;;;;;;;5004528;28;20003;-86
2022/07/11 08:46:24;;;;;;;;;;;;;;;;;;5003811;28;19920;-85
2022/07/11 08:48:50;;;;;;;;;;;;;;;;;;5004503;28;19941;-86
2022/07/11 08:51:15;;;;;;;;;;;;;;;;;;5007568;28;19924;-86
2022/07/11 08:53:41;;;;;;;;;;;;;;;;;;5004291;28;19917;-87
2022/07/11 08:56:09;;;;;;;;;;;;;;;;;;5005144;28;19914;-86
2022/07/11 08:58:35;;;;;;;;;;;;;;;;;;5010384;28;20361;-86
2022/07/11 09:01:00;;;;;;;;;;;;;;;;;;5011034;28;19965;-86
2022/07/11 09:03:25;;;;;;;;;;;;;;;;;;5010604;28;19928;-85
2022/07/11 09:05:50;;;;;;;;;;;;;;;;;;5003842;28;19964;-87
2022/07/11 09:08:15;;;;;;;;;;;;;;;;;;5006691;28;19913;-85
2022/07/11 09:10:41;;;;;;;;;;;;;;;;;;5011718;28;20366;-86
2022/07/11 09:13:06;;;;;;;;;;;;;;;;;;5007576;28;20371;-86
2022/07/11 09:15:31;;;;;;;;;;;;;;;;;;5005470;28;19913;-87
2022/07/11 09:17:57;;;;;;;;;;;;;;;;;;5008268;28;20384;-86
2022/07/11 09:20:22;;;;;;;;;;;;;;;;;;5012270;28;20000;-86
2022/07/11 09:25:31;;;;;;;;;;;;;;;;;;5008092;28;20013;-86
2022/07/11 09:27:56;;;;;;;;;;;;;;;;;;5009413;28;20358;-85
2022/07/11 09:30:22;;;;;;;;;;;;;;;;;;5005245;28;19921;-85
2022/07/11 09:32:47;;;;;;;;;;;;;;;;;;5006218;28;20038;-86
2022/07/11 09:35:12;;;;;;;;;;;;;;;;;;5008990;28;20349;-87
2022/07/11 09:37:37;;;;;;;;;;;;;;;;;;5011739;28;19960;-87
2022/07/11 09:40:02;;;;;;;;;;;;;;;;;;5014467;28;19913;-86
2022/07/11 09:42:27;;;;;;;;;;;;;;;;;;5010417;28;20299;-86
2022/07/11 09:44:53;;;;;;;;;;;;;;;;;;5008483;28;19936;-86
2022/07/11 09:47:18;;;;;;;;;;;;;;;;;;5008609;28;20283;-86
2022/07/11 09:49:43;;;;;;;;;;;;;;;;;;5009091;28;19996;-86
2022/07/11 09:52:08;;;;;;;;;;;;;;;;;;5007154;28;20026;-86
2022/07/11 09:54:33;;;;;;;;;;;;;;;;;;5009596;28;19913;-86
2022/07/11 09:56:58;;;;;;;;;;;;;;;;;;5008502;28;19924;-86
2022/07/11 09:59:24;;;;;;;;;;;;;;;;;;5008638;28;19914;-86
2022/07/11 10:01:49;;;;;;;;;;;;;;;;;;5007267;28;20502;-86
2022/07/11 10:04:14;;;;;;;;;;;;;;;;;;5011396;28;19914;-87
2022/07/11 10:06:39;;;;;;;;;;;;;;;;;;5009892;28;19917;-85
2022/07/11 10:09:05;;;;;;;;;;;;;;;;;;5012704;28;20400;-85
2022/07/11 10:11:30;;;;;;;;;;;;;;;;;;5009021;28;19940;-86
2022/07/11 10:13:55;;;;;;;;;;;;;;;;;;5004373;28;19967;-86
2022/07/11 10:16:20;;;;;;;;;;;;;;;;;;5006240;28;19929;-85
2022/07/11 10:18:45;;;;;;;;;;;;;;;;;;5006339;28;20447;-86
2022/07/11 10:21:11;;;;;;;;;;;;;;;;;;5006768;28;19913;-86
2022/07/11 10:23:36;;;;;;;;;;;;;;;;;;5010677;28;19914;-86
2022/07/11 10:26:01;;;;;;;;;;;;;;;;;;5002337;28;19924;-85
2022/07/11 10:28:26;;;;;;;;;;;;;;;;;;5014010;28;19999;-86
2022/07/11 10:30:52;;;;;;;;;;;;;;;;;;5003174;28;19918;-85
2022/07/11 10:33:17;;;;;;;;;;;;;;;;;;5002760;28;19922;-86
2022/07/11 10:35:42;;;;;;;;;;;;;;;;;;4986112;28;20255;-85
2022/07/11 10:38:07;;;;;;;;;;;;;;;;;;5005482;28;19960;-86
2022/07/11 10:40:32;;;;;;;;;;;;;;;;;;5007835;28;19914;-86
2022/07/11 10:42:58;;;;;;;;;;;;;;;;;;5011035;28;20322;-86
2022/07/11 10:45:23;;;;;;;;;;;;;;;;;;5006175;28;19956;-86
2022/07/11 10:47:48;;;;;;;;;;;;;;;;;;5006861;28;19918;-85
2022/07/11 10:50:13;;;;;;;;;;;;;;;;;;5008603;28;20247;-85
2022/07/11 10:52:39;;;;;;;;;;;;;;;;;;5010593;28;19980;-86
2022/07/11 10:55:04;;;;;;;;;;;;;;;;;;5005528;28;19914;-86
2022/07/11 10:57:29;;;;;;;;;;;;;;;;;;5002986;28;20370;-86
2022/07/11 10:59:54;;;;;;;;;;;;;;;;;;5003714;28;20338;-86
2022/07/11 11:02:20;;;;;;;;;;;;;;;;;;5007428;28;19971;-86
2022/07/11 11:04:45;;;;;;;;;;;;;;;;;;5002701;28;20373;-86
2022/07/11 11:07:10;;;;;;;;;;;;;;;;;;5003766;28;19945;-86
2022/07/11 11:09:35;;;;;;;;;;;;;;;;;;4987487;28;20029;-86
2022/07/11 11:12:01;;;;;;;;;;;;;;;;;;5004961;28;19980;-86
2022/07/11 11:14:26;;;;;;;;;;;;;;;;;;5003298;28;20008;-87
2022/07/11 11:16:51;;;;;;;;;;;;;;;;;;5003784;28;19975;-86
2022/07/11 11:19:16;;;;;;;;;;;;;;;;;;5009800;28;19922;-86
2022/07/11 11:21:42;;;;;;;;;;;;;;;;;;5012297;28;20420;-86
2022/07/11 11:24:08;;;;;;;;;;;;;;;;;;5010159;28;19923;-86
2022/07/11 11:26:33;;;;;;;;;;;;;;;;;;5007350;28;20025;-86
2022/07/11 11:28:58;;;;;;;;;;;;;;;;;;5004685;28;19941;-88
2022/07/11 11:31:24;;;;;;;;;;;;;;;;;;5010688;28;20355;-87
2022/07/11 11:33:49;;;;;;;;;;;;;;;;;;5003231;28;20372;-86
2022/07/11 11:36:14;;;;;;;;;;;;;;;;;;5009403;28;19925;-86
2022/07/11 11:38:39;;;;;;;;;;;;;;;;;;4997795;28;19925;-86
2022/07/11 11:41:07;;;;;;;;;;;;;;;;;;5007747;28;20382;-87
2022/07/11 11:43:32;;;;;;;;;;;;;;;;;;4987431;28;20478;-87
2022/07/11 11:45:57;;;;;;;;;;;;;;;;;;5007245;28;20008;-86
2022/07/11 11:48:23;;;;;;;;;;;;;;;;;;5007508;28;19922;-85
2022/07/11 11:50:48;;;;;;;;;;;;;;;;;;5005778;28;19920;-86
2022/07/11 11:53:15;;;;;;;;;;;;;;;;;;5002744;28;19913;-86
2022/07/11 11:55:40;;;;;;;;;;;;;;;;;;5010561;28;19913;-87
2022/07/11 11:58:05;;;;;;;;;;;;;;;;;;5000899;28;19929;-86
2022/07/11 12:00:31;;;;;;;;;;;;;;;;;;4998757;28;19957;-87
2022/07/11 12:02:57;;;;;;;;;;;;;;;;;;4992880;28;20025;-86
2022/07/11 12:05:22;;;;;;;;;;;;;;;;;;4988525;28;19917;-86
2022/07/11 12:07:47;;;;;;;;;;;;;;;;;;4989799;28;20326;-86
2022/07/11 12:10:12;;;;;;;;;;;;;;;;;;5000787;28;19921;-86
2022/07/11 12:12:43;;;;;;;;;;;;;;;;;;4993702;28;19922;-86
2022/07/11 12:15:08;;;;;;;;;;;;;;;;;;5003879;28;20190;-87
2022/07/11 12:17:34;;;;;;;;;;;;;;;;;;5000502;28;20294;-86
2022/07/11 12:19:59;;;;;;;;;;;;;;;;;;5004710;28;19917;-86
2022/07/11 12:22:25;;;;;;;;;;;;;;;;;;5002245;28;19918;-86
2022/07/11 12:24:51;;;;;;;;;;;;;;;;;;4997674;28;19918;-86
2022/07/11 12:27:16;;;;;;;;;;;;;;;;;;4990064;28;21229;-86
2022/07/11 12:29:44;;;;;;;;;;;;;;;;;;4992018;28;20020;-87
2022/07/11 12:32:09;;;;;;;;;;;;;;;;;;5008686;28;20000;-86
2022/07/11 12:34:36;;;;;;;;;;;;;;;;;;5009161;28;20083;-86
2022/07/11 12:37:01;;;;;;;;;;;;;;;;;;5006192;28;19980;-85
2022/07/11 12:39:27;;;;;;;;;;;;;;;;;;5008021;28;19925;-83
2022/07/11 12:41:52;;;;;;;;;;;;;;;;;;5011548;28;20476;-84
2022/07/11 12:47:01;;;;;;;;;;;;;;;;;;5026461;28;19928;-85
2022/07/11 12:49:26;;;;;;;;;;;;;;;;;;5023216;28;20297;-85
2022/07/11 12:51:52;;;;;;;;;;;;;;;;;;5010241;28;20538;-85
2022/07/11 12:54:17;;;;;;;;;;;;;;;;;;5024464;28;19917;-85
2022/07/11 12:56:42;;;;;;;;;;;;;;;;;;5027208;28;19922;-85
2022/07/11 12:59:07;;;;;;;;;;;;;;;;;;5023438;28;19913;-85
2022/07/11 13:01:33;;;;;;;;;;;;;;;;;;5021250;28;20378;-86
2022/07/11 13:03:58;;;;;;;;;;;;;;;;;;5011680;28;19921;-85
2022/07/11 13:09:17;;;;;;;;;;;;;;;;;;4958874;28;20311;-83
2022/07/11 13:11:43;;;;;;;;;;;;;;;;;;5025273;28;19920;-84
2022/07/11 13:15:08;;;;;;;;;;;;;;;;;;5025002;28;19914;-85
2022/07/11 13:16:53;;;;;;;;;;;;;;;;;;5024131;28;19931;-85
2022/07/11 13:19:18;;;;;;;;;;;;;;;;;;5029191;28;19917;-85
2022/07/11 13:21:43;;;;;;;;;;;;;;;;;;5019294;28;19948;-85
2022/07/11 13:24:08;;;;;;;;;;;;;;;;;;5028918;28;19913;-85
2022/07/11 13:26:34;;;;;;;;;;;;;;;;;;5026115;28;20394;-84
2022/07/11 13:29:00;;;;;;;;;;;;;;;;;;5025798;28;19930;-84
2022/07/11 13:31:25;;;;;;;;;;;;;;;;;;5017614;28;20423;-84
2022/07/11 13:33:51;;;;;;;;;;;;;;;;;;5021878;28;19945;-84
2022/07/11 13:36:16;;;;;;;;;;;;;;;;;;5025592;28;19924;-85
2022/07/11 13:38:41;;;;;;;;;;;;;;;;;;5022086;28;19921;-85
2022/07/11 13:41:06;;;;;;;;;;;;;;;;;;5022545;28;19983;-86
2022/07/11 13:43:32;;;;;;;;;;;;;;;;;;5024197;28;19917;-84
2022/07/11 13:45:57;;;;;;;;;;;;;;;;;;5020365;28;20389;-85
2022/07/11 13:48:22;;;;;;;;;;;;;;;;;;5019628;28;19919;-85
2022/07/11 13:50:47;;;;;;;;;;;;;;;;;;5020353;28;20382;-84
2022/07/11 13:53:13;;;;;;;;;;;;;;;;;;5020018;28;19966;-83
2022/07/11 13:55:38;;;;;;;;;;;;;;;;;;5024615;28;19917;-84
2022/07/11 13:58:03;;;;;;;;;;;;;;;;;;5017978;28;20330;-83
2022/07/11 14:00:29;;;;;;;;;;;;;;;;;;5021168;28;19925;-86
2022/07/11 14:02:54;;;;;;;;;;;;;;;;;;5021260;28;19917;-83
2022/07/11 14:05:19;;;;;;;;;;;;;;;;;;5026512;28;19913;-84
2022/07/11 14:07:44;;;;;;;;;;;;;;;;;;5028614;28;20430;-85
2022/07/11 14:10:10;;;;;;;;;;;;;;;;;;5025318;28;20501;-85
2022/07/11 14:12:35;;;;;;;;;;;;;;;;;;5023907;28;19920;-86
2022/07/11 14:15:00;;;;;;;;;;;;;;;;;;5021110;28;19928;-85
2022/07/11 14:17:25;;;;;;;;;;;;;;;;;;5024366;28;19921;-86
2022/07/11 14:19:50;;;;;;;;;;;;;;;;;;5022853;28;19917;-85
2022/07/11 14:22:17;;;;;;;;;;;;;;;;;;4996679;28;19921;-85
2022/07/11 14:24:42;;;;;;;;;;;;;;;;;;5019769;28;20017;-85
2022/07/11 14:27:07;;;;;;;;;;;;;;;;;;5012505;28;20188;-84
2022/07/11 14:29:32;;;;;;;;;;;;;;;;;;5017786;28;19917;-85
2022/07/11 14:31:58;;;;;;;;;;;;;;;;;;5021160;28;19964;-85
2022/07/11 14:34:23;;;;;;;;;;;;;;;;;;5016168;28;20314;-85
2022/07/11 14:36:48;;;;;;;;;;;;;;;;;;5021080;28;19928;-85
2022/07/11 14:39:13;;;;;;;;;;;;;;;;;;5019634;28;20007;-84
2022/07/11 14:41:39;;;;;;;;;;;;;;;;;;5024471;28;19996;-84
2022/07/11 14:44:05;;;;;;;;;;;;;;;;;;5018286;28;19922;-84
2022/07/11 14:46:30;;;;;;;;;;;;;;;;;;5019795;28;19917;-84
2022/07/11 14:48:57;;;;;;;;;;;;;;;;;;5017165;28;21348;-84
2022/07/11 14:51:22;;;;;;;;;;;;;;;;;;5024886;28;19956;-84
2022/07/11 14:53:47;;;;;;;;;;;;;;;;;;5025748;28;20286;-85
2022/07/11 14:56:13;;;;;;;;;;;;;;;;;;5022202;28;19949;-85
2022/07/11 14:58:38;;;;;;;;;;;;;;;;;;5026642;28;19917;-85
2022/07/11 15:01:03;;;;;;;;;;;;;;;;;;5023888;28;20008;-85
2022/07/11 15:03:37;;;;;;;;;;;;;;;;;;5026559;28;19922;-84
2022/07/11 15:06:02;;;;;;;;;;;;;;;;;;5027843;28;19959;-85
2022/07/11 15:13:57;;;;;;;;;;;;;;;;;;5018130;28;19927;-84
2022/07/11 15:16:22;;;;;;;;;;;;;;;;;;5020409;28;19917;-84
2022/07/11 15:18:47;;;;;;;;;;;;;;;;;;5019728;28;20002;-85
2022/07/11 15:21:12;;;;;;;;;;;;;;;;;;5019259;28;19913;-84
2022/07/11 15:23:37;;;;;;;;;;;;;;;;;;5022867;28;19914;-85
2022/07/11 15:26:02;;;;;;;;;;;;;;;;;;5017790;28;20150;-85
2022/07/11 15:28:28;;;;;;;;;;;;;;;;;;5019356;28;19917;-85
2022/07/11 15:30:53;;;;;;;;;;;;;;;;;;5022765;28;19970;-84
2022/07/11 15:33:18;;;;;;;;;;;;;;;;;;5021514;28;19943;-85
2022/07/11 15:35:43;;;;;;;;;;;;;;;;;;5023240;28;19917;-86
2022/07/11 15:38:09;;;;;;;;;;;;;;;;;;5020578;28;19921;-85
2022/07/11 15:40:34;;;;;;;;;;;;;;;;;;5019298;28;19913;-84
2022/07/11 15:42:59;;;;;;;;;;;;;;;;;;5018896;28;19918;-86
2022/07/11 15:45:25;;;;;;;;;;;;;;;;;;5019917;28;19924;-84
2022/07/11 15:47:50;;;;;;;;;;;;;;;;;;5020630;28;19967;-87
2022/07/11 15:50:15;;;;;;;;;;;;;;;;;;5020676;28;19925;-86
2022/07/11 15:52:41;;;;;;;;;;;;;;;;;;5020387;28;19921;-84
2022/07/11 15:55:06;;;;;;;;;;;;;;;;;;5028714;28;20262;-85
2022/07/11 15:57:31;;;;;;;;;;;;;;;;;;5018584;28;19929;-85
2022/07/11 15:59:56;;;;;;;;;;;;;;;;;;5025428;28;20359;-85
2022/07/11 16:02:21;;;;;;;;;;;;;;;;;;5023359;28;19917;-85
2022/07/11 16:04:47;;;;;;;;;;;;;;;;;;5011864;28;19917;-84
2022/07/11 16:07:12;;;;;;;;;;;;;;;;;;5026410;28;20021;-85
2022/07/11 16:09:37;;;;;;;;;;;;;;;;;;5022837;28;20030;-85
2022/07/11 16:12:02;;;;;;;;;;;;;;;;;;5029199;28;19917;-85
2022/07/11 16:14:28;;;;;;;;;;;;;;;;;;5027631;28;19929;-84
2022/07/11 16:16:53;;;;;;;;;;;;;;;;;;5026066;28;19983;-84
2022/07/11 16:19:18;;;;;;;;;;;;;;;;;;5023152;28;19920;-85
2022/07/11 16:21:44;;;;;;;;;;;;;;;;;;5021529;28;20346;-86
2022/07/11 16:24:09;;;;;;;;;;;;;;;;;;5020461;28;20055;-84
2022/07/11 16:26:34;;;;;;;;;;;;;;;;;;5028159;28;19971;-84
2022/07/11 16:29:00;;;;;;;;;;;;;;;;;;5027156;28;20417;-85
2022/07/11 16:31:25;;;;;;;;;;;;;;;;;;5027393;28;20194;-85
2022/07/11 16:33:50;;;;;;;;;;;;;;;;;;5024314;28;20436;-84
2022/07/11 16:36:15;;;;;;;;;;;;;;;;;;5024064;28;19932;-85
2022/07/11 16:38:40;;;;;;;;;;;;;;;;;;5022287;28;19941;-84
2022/07/11 16:43:50;;;;;;;;;;;;;;;;;;5020476;28;19970;-85
2022/07/11 16:46:15;;;;;;;;;;;;;;;;;;5028999;28;20404;-85
2022/07/11 16:48:41;;;;;;;;;;;;;;;;;;5017615;28;20264;-83
2022/07/11 16:51:06;;;;;;;;;;;;;;;;;;5028231;28;19921;-84
2022/07/11 16:53:32;;;;;;;;;;;;;;;;;;5024261;28;19920;-85
2022/07/11 16:55:57;;;;;;;;;;;;;;;;;;5029151;28;19963;-85